createdAt,value
2023-04-01T00:01:17.817Z,12.60
2023-04-01T00:06:23.643Z,12.61
2023-04-01T00:11:29.128Z,12.66
2023-04-01T00:16:34.940Z,12.63
2023-04-01T00:21:41.383Z,12.58
2023-04-01T00:26:48.731Z,12.54
2023-04-01T00:31:54.564Z,12.47
2023-04-01T00:37:00.099Z,12.50
2023-04-01T00:42:07.314Z,12.44
2023-04-01T00:47:12.948Z,12.41
2023-04-01T00:52:21.460Z,12.42
2023-04-01T00:57:36.058Z,12.40
2023-04-01T01:02:43.778Z,12.30
2023-04-01T01:08:10.981Z,12.14
2023-04-01T01:13:19.545Z,12.01
2023-04-01T01:18:31.101Z,11.42
2023-04-01T01:24:08.350Z,11.01
2023-04-01T01:29:33.321Z,11.03
2023-04-01T01:34:41.867Z,10.70
2023-04-01T01:39:50.482Z,10.52
2023-04-01T01:44:58.588Z,10.41
2023-04-01T01:50:06.506Z,10.24
2023-04-01T01:55:36.332Z,10.01
2023-04-01T02:00:45.350Z,9.86
2023-04-01T02:05:54.181Z,9.79
2023-04-01T02:11:23.670Z,9.51
2023-04-01T02:16:35.873Z,9.45
2023-04-01T02:21:44.319Z,9.33
2023-04-01T02:26:51.575Z,9.40
2023-04-01T02:31:58.199Z,9.36
2023-04-01T02:37:04.820Z,9.31
2023-04-01T02:42:10.443Z,9.25
2023-04-01T02:47:16.073Z,9.21
2023-04-01T02:52:21.640Z,9.11
2023-04-01T02:57:27.933Z,9.02
2023-04-01T03:02:33.637Z,8.80
2023-04-01T03:07:39.284Z,8.61
2023-04-01T03:12:44.779Z,8.74
2023-04-01T03:17:50.877Z,8.66
2023-04-01T03:22:56.591Z,8.57
2023-04-01T03:28:02.267Z,8.56
2023-04-01T03:33:08.285Z,8.52
2023-04-01T03:38:14.010Z,8.57
2023-04-01T03:43:19.853Z,8.60
2023-04-01T03:48:26.664Z,8.53
2023-04-01T03:53:32.377Z,8.26
2023-04-01T03:58:40.210Z,8.26
2023-04-01T04:03:46.995Z,8.14
2023-04-01T04:08:52.829Z,8.25
2023-04-01T04:13:58.653Z,8.15
2023-04-01T04:19:05.668Z,8.09
2023-04-01T04:24:12.163Z,8.20
2023-04-01T04:29:19.281Z,8.29
2023-04-01T04:34:25.050Z,8.29
2023-04-01T04:39:31.349Z,8.22
2023-04-01T04:44:36.932Z,8.17
2023-04-01T04:49:42.575Z,8.21
2023-04-01T04:54:48.325Z,8.15
2023-04-01T04:59:53.898Z,8.15
2023-04-01T05:05:13.106Z,8.08
2023-04-01T05:10:18.984Z,7.96
2023-04-01T05:15:25.725Z,7.95
2023-04-01T05:20:31.464Z,7.84
2023-04-01T05:25:39.762Z,7.69
2023-04-01T05:30:46.377Z,7.83
2023-04-01T05:36:17.823Z,7.82
2023-04-01T05:41:23.867Z,7.81
2023-04-01T05:46:29.706Z,7.80
2023-04-01T05:51:36.873Z,7.81
2023-04-01T05:56:43.463Z,7.85
2023-04-01T06:01:49.096Z,7.76
2023-04-01T06:06:54.904Z,7.71
2023-04-01T06:12:12.531Z,7.80
2023-04-01T06:17:22.832Z,7.89
2023-04-01T06:22:44.340Z,7.85
2023-04-01T06:28:20.919Z,7.74
2023-04-01T06:33:35.422Z,7.74
2023-04-01T06:38:59.191Z,7.89
2023-04-01T06:44:28.763Z,8.10
2023-04-01T06:50:19.717Z,7.87
2023-04-01T06:55:52.230Z,7.81
2023-04-01T07:01:05.137Z,7.76
2023-04-01T07:06:19.898Z,7.91
2023-04-01T07:11:33.151Z,8.00
2023-04-01T07:16:56.360Z,8.39
2023-04-01T07:22:32.659Z,8.56
2023-04-01T07:27:44.965Z,8.33
2023-04-01T07:33:05.804Z,8.37
2023-04-01T07:38:26.797Z,8.33
2023-04-01T07:43:38.928Z,8.12
2023-04-01T07:48:54.955Z,8.21
2023-04-01T07:54:03.770Z,8.12
2023-04-01T07:59:30.228Z,8.43
2023-04-01T08:04:42.151Z,8.15
2023-04-01T08:09:51.989Z,8.23
2023-04-01T08:15:24.637Z,8.31
2023-04-01T08:20:49.761Z,8.47
2023-04-01T08:26:01.122Z,8.31
2023-04-01T08:31:17.377Z,8.16
2023-04-01T08:36:29.056Z,8.12
2023-04-01T08:42:02.962Z,8.15
2023-04-01T08:47:18.851Z,8.19
2023-04-01T08:52:39.059Z,8.23
2023-04-01T08:58:03.746Z,8.34
2023-04-01T09:03:33.069Z,8.47
2023-04-01T09:08:43.322Z,8.39
2023-04-01T09:13:54.632Z,8.35
2023-04-01T09:19:15.016Z,8.39
2023-04-01T09:24:32.590Z,8.47
2023-04-01T09:29:57.053Z,8.31
2023-04-01T09:35:24.337Z,8.28
2023-04-01T09:40:38.516Z,8.42
2023-04-01T09:45:51.214Z,8.37
2023-04-01T09:51:03.074Z,8.49
2023-04-01T09:56:17.917Z,8.56
2023-04-01T10:01:49.404Z,8.23
2023-04-01T10:07:28.166Z,8.25
2023-04-01T10:12:59.693Z,8.03
2023-04-01T10:18:24.546Z,8.25
2023-04-01T10:23:48.053Z,8.18
2023-04-01T10:29:04.300Z,8.25
2023-04-01T10:34:35.704Z,8.28
2023-04-01T10:40:02.537Z,8.34
2023-04-01T10:45:33.711Z,8.45
2023-04-01T10:50:51.407Z,8.44
2023-04-01T10:56:35.623Z,8.41
2023-04-01T11:02:03.994Z,8.73
2023-04-01T11:07:31.847Z,8.73
2023-04-01T11:12:56.040Z,8.55
2023-04-01T11:18:10.470Z,8.38
2023-04-01T11:23:35.548Z,8.44
2023-04-01T11:29:00.670Z,8.45
2023-04-01T11:34:22.200Z,8.20
2023-04-01T11:39:33.670Z,8.31
2023-04-01T11:45:20.107Z,8.16
2023-04-01T11:50:49.355Z,8.02
2023-04-01T11:56:21.930Z,8.10
2023-04-01T12:01:30.541Z,7.99
2023-04-01T12:06:44.935Z,8.29
2023-04-01T12:12:11.974Z,8.28
2023-04-01T12:17:41.553Z,8.33
2023-04-01T12:23:23.338Z,8.48
2023-04-01T12:28:49.704Z,8.33
2023-04-01T12:34:04.113Z,8.17
2023-04-01T12:39:15.439Z,8.23
2023-04-01T12:44:38.547Z,8.36
2023-04-01T12:49:56.196Z,8.13
2023-04-01T12:55:10.275Z,8.23
2023-04-01T13:00:47.380Z,7.98
2023-04-01T13:06:21.803Z,8.20
2023-04-01T13:11:40.119Z,8.47
2023-04-01T13:17:06.911Z,8.07
2023-04-01T13:22:23.612Z,8.00
2023-04-01T13:27:32.172Z,8.06
2023-04-01T13:32:44.114Z,8.27
2023-04-01T13:37:55.786Z,8.12
2023-04-01T13:43:16.530Z,8.16
2023-04-01T13:48:25.096Z,7.87
2023-04-01T13:53:33.756Z,7.80
2023-04-01T13:58:42.266Z,7.72
2023-04-01T14:04:14.666Z,7.72
2023-04-01T14:09:38.152Z,7.61
2023-04-01T14:15:10.805Z,7.43
2023-04-01T14:20:37.626Z,7.48
2023-04-01T14:25:55.528Z,7.60
2023-04-01T14:31:29.935Z,7.44
2023-04-01T14:36:47.376Z,7.43
2023-04-01T14:42:24.784Z,7.51
2023-04-01T14:47:36.335Z,7.30
2023-04-01T14:52:44.649Z,7.34
2023-04-01T14:58:05.652Z,7.20
2023-04-01T15:03:23.261Z,7.20
2023-04-01T15:08:40.790Z,7.20
2023-04-01T15:13:50.527Z,7.37
2023-04-01T15:19:27.916Z,7.21
2023-04-01T15:24:42.233Z,7.12
2023-04-01T15:30:16.342Z,7.18
2023-04-01T15:35:52.384Z,7.37
2023-04-01T15:41:20.108Z,7.45
2023-04-01T15:46:43.832Z,7.16
2023-04-01T15:52:07.033Z,7.06
2023-04-01T15:57:32.257Z,7.08
2023-04-01T16:02:52.857Z,6.98
2023-04-01T16:08:01.417Z,7.04
2023-04-01T16:13:18.963Z,7.10
2023-04-01T16:18:50.194Z,7.19
2023-04-01T16:24:05.849Z,7.03
2023-04-01T16:29:14.337Z,6.94
2023-04-01T16:34:42.195Z,6.82
2023-04-01T16:39:53.534Z,6.78
2023-04-01T16:45:11.107Z,6.65
2023-04-01T16:50:26.114Z,6.62
2023-04-01T16:55:58.549Z,6.67
2023-04-01T17:01:09.778Z,6.71
2023-04-01T17:06:34.737Z,6.74
2023-04-01T17:11:52.382Z,6.65
2023-04-01T17:17:12.796Z,6.72
2023-04-01T17:22:30.643Z,6.51
2023-04-01T17:27:49.565Z,6.52
2023-04-01T17:33:03.774Z,6.52
2023-04-01T17:38:15.267Z,6.46
2023-04-01T17:43:36.285Z,6.17
2023-04-01T17:48:47.652Z,6.27
2023-04-01T17:54:02.519Z,6.27
2023-04-01T17:59:19.913Z,6.25
2023-04-01T18:04:40.526Z,6.21
2023-04-01T18:09:49.429Z,6.08
2023-04-01T18:14:57.948Z,6.09
2023-04-01T18:20:15.473Z,6.10
2023-04-01T18:25:24.029Z,6.07
2023-04-01T18:30:32.838Z,6.10
2023-04-01T18:35:53.695Z,6.15
2023-04-01T18:41:36.011Z,6.01
2023-04-01T18:47:07.005Z,6.07
2023-04-01T18:52:38.277Z,5.76
2023-04-01T18:57:58.455Z,5.79
2023-04-01T19:03:25.297Z,5.82
2023-04-01T19:08:37.569Z,5.67
2023-04-01T19:14:10.244Z,5.63
2023-04-01T19:19:35.158Z,5.53
2023-04-01T19:25:15.083Z,5.75
2023-04-01T19:30:44.048Z,5.74
2023-04-01T19:36:14.877Z,5.84
2023-04-01T19:41:29.524Z,5.76
2023-04-01T19:46:50.857Z,5.87
2023-04-01T19:52:05.539Z,5.87
2023-04-01T19:57:22.855Z,5.87
2023-04-01T20:02:34.473Z,5.72
2023-04-01T20:07:43.230Z,5.77
2023-04-01T20:13:09.989Z,5.65
2023-04-01T20:18:24.546Z,5.69
2023-04-01T20:23:38.625Z,5.56
2023-04-01T20:28:52.860Z,5.60
2023-04-01T20:34:19.706Z,5.59
2023-04-01T20:39:49.530Z,5.37
2023-04-01T20:44:57.997Z,5.34
2023-04-01T20:50:15.896Z,5.35
2023-04-01T20:55:30.686Z,5.55
2023-04-01T21:01:07.233Z,5.56
2023-04-01T21:06:19.171Z,5.66
2023-04-01T21:11:28.750Z,5.61
2023-04-01T21:16:43.137Z,5.56
2023-04-01T21:22:02.000Z,5.37
2023-04-01T21:27:28.972Z,5.57
2023-04-01T21:33:02.750Z,5.47
2023-04-01T21:38:29.527Z,5.42
2023-04-01T21:43:44.356Z,5.23
2023-04-01T21:48:58.441Z,5.21
2023-04-01T21:54:40.671Z,5.27
2023-04-01T21:59:52.260Z,5.47
2023-04-01T22:05:20.585Z,5.40
2023-04-01T22:10:37.921Z,5.44
2023-04-01T22:15:52.045Z,5.35
2023-04-01T22:21:05.238Z,5.25
2023-04-01T22:26:31.137Z,5.24
2023-04-01T22:31:42.245Z,5.28
2023-04-01T22:36:59.527Z,5.25
2023-04-01T22:42:23.591Z,5.36
2023-04-01T22:47:34.840Z,5.43
2023-04-01T22:52:45.878Z,5.43
2023-04-01T22:58:00.748Z,5.51
2023-04-01T23:03:27.944Z,5.46
2023-04-01T23:08:54.532Z,5.57
2023-04-01T23:14:11.802Z,5.53
2023-04-01T23:19:36.237Z,5.35
2023-04-01T23:24:45.269Z,5.36
2023-04-01T23:29:50.982Z,5.18
2023-04-01T23:35:03.099Z,5.29
2023-04-01T23:40:11.790Z,5.19
2023-04-01T23:45:21.854Z,5.18
2023-04-01T23:50:28.656Z,5.39
2023-04-01T23:55:35.904Z,5.55
